sensor_id;sensor_type;location;lat;lon;timestamp;pressure;altitude;pressure_sealevel;temperature;humidity
48848;BME280;36611;51.638;5.784;2023-02-12T00:02:02;103713.81;;;12.62;57.03
48848;BME280;36611;51.638;5.784;2023-02-12T00:04:28;103721.00;;;12.62;57.02
48848;BME280;36611;51.638;5.784;2023-02-12T00:06:55;103719.25;;;12.61;56.96
48848;BME280;36611;51.638;5.784;2023-02-12T00:09:22;103720.13;;;12.61;56.72
48848;BME280;36611;51.638;5.784;2023-02-12T00:11:48;103720.25;;;12.58;57.03
48848;BME280;36611;51.638;5.784;2023-02-12T00:14:15;103722.09;;;12.56;56.51
48848;BME280;36611;51.638;5.784;2023-02-12T00:16:42;103726.63;;;12.56;56.53
48848;BME280;36611;51.638;5.784;2023-02-12T00:19:09;103721.22;;;12.56;56.54
48848;BME280;36611;51.638;5.784;2023-02-12T00:21:35;103721.28;;;12.54;56.45
48848;BME280;36611;51.638;5.784;2023-02-12T00:24:02;103728.47;;;12.54;56.76
48848;BME280;36611;51.638;5.784;2023-02-12T00:26:29;103730.28;;;12.53;56.85
48848;BME280;36611;51.638;5.784;2023-02-12T00:28:56;103733.91;;;12.52;56.67
48848;BME280;36611;51.638;5.784;2023-02-12T00:31:25;103736.66;;;12.51;56.61
48848;BME280;36611;51.638;5.784;2023-02-12T00:33:55;103734.13;;;12.46;56.42
48848;BME280;36611;51.638;5.784;2023-02-12T00:36:24;103733.41;;;12.41;56.63
48848;BME280;36611;51.638;5.784;2023-02-12T00:38:53;103728.88;;;12.41;56.42
48848;BME280;36611;51.638;5.784;2023-02-12T00:41:23;103731.63;;;12.40;56.64
48848;BME280;36611;51.638;5.784;2023-02-12T00:43:51;103728.06;;;12.39;56.29
48848;BME280;36611;51.638;5.784;2023-02-12T00:46:18;103727.28;;;12.36;56.54
48848;BME280;36611;51.638;5.784;2023-02-12T00:48:44;103733.69;;;12.32;56.59
48848;BME280;36611;51.638;5.784;2023-02-12T00:51:11;103719.44;;;12.28;56.64
48848;BME280;36611;51.638;5.784;2023-02-12T00:53:39;103719.44;;;12.28;56.63
48848;BME280;36611;51.638;5.784;2023-02-12T00:56:06;103716.69;;;12.30;56.45
48848;BME280;36611;51.638;5.784;2023-02-12T00:58:33;103725.63;;;12.32;56.49
48848;BME280;36611;51.638;5.784;2023-02-12T01:01:00;103722.03;;;12.31;56.63
48848;BME280;36611;51.638;5.784;2023-02-12T01:03:27;103722.13;;;12.28;56.60
48848;BME280;36611;51.638;5.784;2023-02-12T01:05:53;103726.69;;;12.26;56.36
48848;BME280;36611;51.638;5.784;2023-02-12T01:08:21;103722.25;;;12.25;56.22
48848;BME280;36611;51.638;5.784;2023-02-12T01:11:02;103717.72;;;12.26;56.53
48848;BME280;36611;51.638;5.784;2023-02-12T01:13:31;103715.88;;;12.28;56.33
48848;BME280;36611;51.638;5.784;2023-02-12T01:16:08;103722.09;;;12.30;56.53
48848;BME280;36611;51.638;5.784;2023-02-12T01:18:37;103723.03;;;12.29;56.45
48848;BME280;36611;51.638;5.784;2023-02-12T01:21:13;103723.94;;;12.28;56.40
48848;BME280;36611;51.638;5.784;2023-02-12T01:23:41;103724.88;;;12.27;56.48
48848;BME280;36611;51.638;5.784;2023-02-12T01:26:08;103723.16;;;12.24;56.46
48848;BME280;36611;51.638;5.784;2023-02-12T01:28:39;103719.66;;;12.22;56.39
48848;BME280;36611;51.638;5.784;2023-02-12T01:31:22;103725.97;;;12.21;56.21
48848;BME280;36611;51.638;5.784;2023-02-12T01:33:51;103722.38;;;12.21;56.53
48848;BME280;36611;51.638;5.784;2023-02-12T01:36:19;103716.94;;;12.22;56.13
48848;BME280;36611;51.638;5.784;2023-02-12T01:38:47;103713.31;;;12.23;56.24
48848;BME280;36611;51.638;5.784;2023-02-12T01:41:17;103711.56;;;12.22;56.40
48848;BME280;36611;51.638;5.784;2023-02-12T01:43:45;103712.44;;;12.23;56.24
48848;BME280;36611;51.638;5.784;2023-02-12T01:46:13;103724.16;;;12.22;56.43
48848;BME280;36611;51.638;5.784;2023-02-12T01:48:44;103718.84;;;12.19;56.35
48848;BME280;36611;51.638;5.784;2023-02-12T01:51:15;103721.66;;;12.16;56.20
48848;BME280;36611;51.638;5.784;2023-02-12T01:53:48;103719.06;;;12.13;56.32
48848;BME280;36611;51.638;5.784;2023-02-12T01:56:16;103727.19;;;12.11;56.46
48848;BME280;36611;51.638;5.784;2023-02-12T01:58:45;103718.22;;;12.11;56.40
48848;BME280;36611;51.638;5.784;2023-02-12T02:01:18;103720.97;;;12.09;56.17
48848;BME280;36611;51.638;5.784;2023-02-12T02:03:47;103714.75;;;12.07;56.35
48848;BME280;36611;51.638;5.784;2023-02-12T02:06:19;103714.84;;;12.04;56.38
48848;BME280;36611;51.638;5.784;2023-02-12T02:08:48;103713.97;;;12.03;56.37
48848;BME280;36611;51.638;5.784;2023-02-12T02:11:15;103715.72;;;12.04;56.15
48848;BME280;36611;51.638;5.784;2023-02-12T02:14:00;103713.91;;;12.05;56.24
48848;BME280;36611;51.638;5.784;2023-02-12T02:16:49;103706.72;;;12.05;56.12
48848;BME280;36611;51.638;5.784;2023-02-12T02:22:42;103718.63;;;11.98;56.35
48848;BME280;36611;51.638;5.784;2023-02-12T02:31:25;103708.97;;;11.91;56.28
48848;BME280;36611;51.638;5.784;2023-02-12T02:37:12;103707.16;;;11.92;56.29
48848;BME280;36611;51.638;5.784;2023-02-12T02:40:12;103708.03;;;11.92;56.31
48848;BME280;36611;51.638;5.784;2023-02-12T02:45:14;103706.28;;;11.91;56.27
48848;BME280;36611;51.638;5.784;2023-02-12T02:47:50;103706.28;;;11.91;56.57
48848;BME280;36611;51.638;5.784;2023-02-12T02:50:22;103692.84;;;11.90;56.55
48848;BME280;36611;51.638;5.784;2023-02-12T02:53:00;103688.41;;;11.87;56.70
48848;BME280;36611;51.638;5.784;2023-02-12T02:55:31;103687.53;;;11.87;56.27
48848;BME280;36611;51.638;5.784;2023-02-12T02:58:05;103684.88;;;11.85;56.55
48848;BME280;36611;51.638;5.784;2023-02-12T03:00:38;103691.19;;;11.84;56.65
48848;BME280;36611;51.638;5.784;2023-02-12T03:03:09;103686.78;;;11.82;56.34
48848;BME280;36611;51.638;5.784;2023-02-12T03:05:41;103689.56;;;11.78;56.30
48848;BME280;36611;51.638;5.784;2023-02-12T03:08:19;103687.81;;;11.76;56.84
48848;BME280;36611;51.638;5.784;2023-02-12T03:11:00;103685.22;;;11.73;56.18
48848;BME280;36611;51.638;5.784;2023-02-12T03:13:37;103679.94;;;11.70;56.59
48848;BME280;36611;51.638;5.784;2023-02-12T03:16:12;103685.38;;;11.68;56.37
48848;BME280;36611;51.638;5.784;2023-02-12T03:18:48;103686.41;;;11.64;56.80
48848;BME280;36611;51.638;5.784;2023-02-12T03:21:24;103684.63;;;11.63;56.61
48848;BME280;36611;51.638;5.784;2023-02-12T03:24:10;103690.94;;;11.62;56.49
48848;BME280;36611;51.638;5.784;2023-02-12T03:27:04;103680.22;;;11.61;56.49
48848;BME280;36611;51.638;5.784;2023-02-12T03:29:32;103690.09;;;11.60;56.46
48848;BME280;36611;51.638;5.784;2023-02-12T03:34:52;103685.75;;;11.56;56.77
48848;BME280;36611;51.638;5.784;2023-02-12T03:45:42;103696.31;;;11.62;56.87
48848;BME280;36611;51.638;5.784;2023-02-12T03:48:48;103692.72;;;11.63;56.61
48848;BME280;36611;51.638;5.784;2023-02-12T03:51:22;103690.91;;;11.64;56.68
48848;BME280;36611;51.638;5.784;2023-02-12T03:53:50;103686.41;;;11.64;56.64
48848;BME280;36611;51.638;5.784;2023-02-12T03:56:23;103688.22;;;11.64;56.71
48848;BME280;36611;51.638;5.784;2023-02-12T03:58:50;103683.75;;;11.63;56.88
48848;BME280;36611;51.638;5.784;2023-02-12T04:01:17;103681.00;;;11.64;56.80
48848;BME280;36611;51.638;5.784;2023-02-12T04:03:44;103684.59;;;11.65;56.86
48848;BME280;36611;51.638;5.784;2023-02-12T04:06:26;103688.09;;;11.67;56.58
48848;BME280;36611;51.638;5.784;2023-02-12T04:08:56;103691.63;;;11.69;56.71
48848;BME280;36611;51.638;5.784;2023-02-12T04:11:33;103686.22;;;11.70;56.75
48848;BME280;36611;51.638;5.784;2023-02-12T04:17:08;103688.09;;;11.67;56.88
48848;BME280;36611;51.638;5.784;2023-02-12T04:22:44;103697.94;;;11.68;56.77
48848;BME280;36611;51.638;5.784;2023-02-12T04:25:31;103706.03;;;11.68;56.86
48848;BME280;36611;51.638;5.784;2023-02-12T04:30:45;103711.41;;;11.68;56.71
48848;BME280;36611;51.638;5.784;2023-02-12T04:33:17;103709.66;;;11.67;56.62
48848;BME280;36611;51.638;5.784;2023-02-12T04:36:05;103715.06;;;11.65;56.50
48848;BME280;36611;51.638;5.784;2023-02-12T04:38:45;103716.84;;;11.66;56.75
48848;BME280;36611;51.638;5.784;2023-02-12T04:41:13;103726.72;;;11.66;56.83
48848;BME280;36611;51.638;5.784;2023-02-12T04:43:40;103724.97;;;11.65;56.47
48848;BME280;36611;51.638;5.784;2023-02-12T04:46:07;103724.97;;;11.65;56.50
48848;BME280;36611;51.638;5.784;2023-02-12T04:48:48;103728.59;;;11.64;56.83
48848;BME280;36611;51.638;5.784;2023-02-12T04:51:15;103728.53;;;11.65;56.66
48848;BME280;36611;51.638;5.784;2023-02-12T04:53:42;103731.22;;;11.65;56.39
48848;BME280;36611;51.638;5.784;2023-02-12T04:56:10;103723.19;;;11.64;56.70
48848;BME280;36611;51.638;5.784;2023-02-12T04:58:39;103728.59;;;11.64;56.39
48848;BME280;36611;51.638;5.784;2023-02-12T05:01:07;103726.81;;;11.63;56.65
48848;BME280;36611;51.638;5.784;2023-02-12T05:03:35;103720.50;;;11.64;56.65
48848;BME280;36611;51.638;5.784;2023-02-12T05:06:06;103723.25;;;11.62;56.64
48848;BME280;36611;51.638;5.784;2023-02-12T05:08:33;103720.66;;;11.59;56.35
48848;BME280;36611;51.638;5.784;2023-02-12T05:11:05;103725.19;;;11.57;56.32
48848;BME280;36611;51.638;5.784;2023-02-12T05:13:32;103720.69;;;11.58;56.39
48848;BME280;36611;51.638;5.784;2023-02-12T05:16:02;103724.25;;;11.58;56.43
48848;BME280;36611;51.638;5.784;2023-02-12T05:18:30;103727.84;;;11.59;56.54
48848;BME280;36611;51.638;5.784;2023-02-12T05:20:58;103727.84;;;11.59;56.65
48848;BME280;36611;51.638;5.784;2023-02-12T05:23:27;103734.97;;;11.60;56.71
48848;BME280;36611;51.638;5.784;2023-02-12T05:25:57;103730.47;;;11.60;56.29
48848;BME280;36611;51.638;5.784;2023-02-12T05:28:24;103735.81;;;11.62;56.64
48848;BME280;36611;51.638;5.784;2023-02-12T05:30:50;103734.97;;;11.60;56.28
48848;BME280;36611;51.638;5.784;2023-02-12T05:33:17;103742.13;;;11.61;56.50
48848;BME280;36611;51.638;5.784;2023-02-12T05:35:44;103744.88;;;11.59;56.53
48848;BME280;36611;51.638;5.784;2023-02-12T05:38:10;103734.97;;;11.60;56.32
48848;BME280;36611;51.638;5.784;2023-02-12T05:40:37;103730.53;;;11.59;56.47
48848;BME280;36611;51.638;5.784;2023-02-12T05:43:05;103734.97;;;11.60;56.46
48848;BME280;36611;51.638;5.784;2023-02-12T05:45:32;103737.78;;;11.57;56.64
48848;BME280;36611;51.638;5.784;2023-02-12T05:47:59;103738.69;;;11.56;56.38
48848;BME280;36611;51.638;5.784;2023-02-12T05:50:25;103739.63;;;11.55;56.63
48848;BME280;36611;51.638;5.784;2023-02-12T05:52:59;103738.69;;;11.56;56.45
48848;BME280;36611;51.638;5.784;2023-02-12T05:55:26;103747.69;;;11.55;56.60
48848;BME280;36611;51.638;5.784;2023-02-12T05:57:53;103746.81;;;11.54;56.58
48848;BME280;36611;51.638;5.784;2023-02-12T06:00:20;103749.59;;;11.51;56.74
48848;BME280;36611;51.638;5.784;2023-02-12T06:02:47;103749.63;;;11.50;56.70
48848;BME280;36611;51.638;5.784;2023-02-12T06:05:13;103746.91;;;11.51;56.67
48848;BME280;36611;51.638;5.784;2023-02-12T06:07:40;103745.09;;;11.52;56.50
48848;BME280;36611;51.638;5.784;2023-02-12T06:10:07;103748.66;;;11.52;56.75
48848;BME280;36611;51.638;5.784;2023-02-12T06:12:34;103745.06;;;11.53;56.73
48848;BME280;36611;51.638;5.784;2023-02-12T06:15:00;103749.50;;;11.54;56.67
48848;BME280;36611;51.638;5.784;2023-02-12T06:17:27;103751.28;;;11.55;56.48
48848;BME280;36611;51.638;5.784;2023-02-12T06:19:54;103757.59;;;11.54;56.49
48848;BME280;36611;51.638;5.784;2023-02-12T06:22:20;103753.16;;;11.52;56.52
48848;BME280;36611;51.638;5.784;2023-02-12T06:24:47;103754.13;;;11.49;56.79
48848;BME280;36611;51.638;5.784;2023-02-12T06:27:13;103749.72;;;11.46;56.69
48848;BME280;36611;51.638;5.784;2023-02-12T06:29:40;103753.34;;;11.45;56.87
48848;BME280;36611;51.638;5.784;2023-02-12T06:32:07;103749.78;;;11.45;56.73
48848;BME280;36611;51.638;5.784;2023-02-12T06:34:34;103759.69;;;11.43;56.51
48848;BME280;36611;51.638;5.784;2023-02-12T06:37:00;103758.81;;;11.42;56.57
48848;BME280;36611;51.638;5.784;2023-02-12T06:39:27;103758.81;;;11.42;56.52
48848;BME280;36611;51.638;5.784;2023-02-12T06:41:53;103756.13;;;11.42;56.71
48848;BME280;36611;51.638;5.784;2023-02-12T06:44:20;103760.66;;;11.40;56.92
48848;BME280;36611;51.638;5.784;2023-02-12T06:46:47;103754.44;;;11.38;56.66
48848;BME280;36611;51.638;5.784;2023-02-12T06:49:13;103759.88;;;11.37;56.67
48848;BME280;36611;51.638;5.784;2023-02-12T06:51:40;103759.91;;;11.35;56.93
48848;BME280;36611;51.638;5.784;2023-02-12T06:54:12;103765.28;;;11.35;57.03
48848;BME280;36611;51.638;5.784;2023-02-12T06:56:39;103770.59;;;11.38;56.71
48848;BME280;36611;51.638;5.784;2023-02-12T06:59:06;103762.56;;;11.37;56.90
48848;BME280;36611;51.638;5.784;2023-02-12T07:01:33;103769.75;;;11.36;56.81
48848;BME280;36611;51.638;5.784;2023-02-12T07:04:01;103771.56;;;11.36;57.06
48848;BME280;36611;51.638;5.784;2023-02-12T07:06:29;103780.47;;;11.38;57.11
48848;BME280;36611;51.638;5.784;2023-02-12T07:08:57;103781.34;;;11.38;57.14
48848;BME280;36611;51.638;5.784;2023-02-12T07:11:26;103778.63;;;11.40;56.87
48848;BME280;36611;51.638;5.784;2023-02-12T07:13:53;103778.66;;;11.38;57.28
48848;BME280;36611;51.638;5.784;2023-02-12T07:16:19;103779.53;;;11.39;56.89
48848;BME280;36611;51.638;5.784;2023-02-12T07:18:46;103782.25;;;11.39;57.03
48848;BME280;36611;51.638;5.784;2023-02-12T07:21:14;103773.28;;;11.38;57.08
48848;BME280;36611;51.638;5.784;2023-02-12T07:23:46;103790.28;;;11.40;56.86
48848;BME280;36611;51.638;5.784;2023-02-12T07:26:17;103783.06;;;11.41;56.95
48848;BME280;36611;51.638;5.784;2023-02-12T07:28:44;103790.22;;;11.42;56.89
48848;BME280;36611;51.638;5.784;2023-02-12T07:31:13;103787.53;;;11.42;56.89
48848;BME280;36611;51.638;5.784;2023-02-12T07:33:41;103788.50;;;11.39;57.04
48848;BME280;36611;51.638;5.784;2023-02-12T07:36:12;103793.84;;;11.41;56.92
48848;BME280;36611;51.638;5.784;2023-02-12T07:38:39;103788.47;;;11.41;57.18
48848;BME280;36611;51.638;5.784;2023-02-12T07:41:20;103792.03;;;11.41;56.75
48848;BME280;36611;51.638;5.784;2023-02-12T07:43:51;103795.59;;;11.42;56.91
48848;BME280;36611;51.638;5.784;2023-02-12T07:46:21;103795.66;;;11.40;57.04
48848;BME280;36611;51.638;5.784;2023-02-12T07:48:50;103792.06;;;11.40;57.22
48848;BME280;36611;51.638;5.784;2023-02-12T07:51:18;103792.16;;;11.37;57.13
48848;BME280;36611;51.638;5.784;2023-02-12T07:53:44;103793.97;;;11.36;56.91
48848;BME280;36611;51.638;5.784;2023-02-12T07:56:14;103790.44;;;11.34;57.21
48848;BME280;36611;51.638;5.784;2023-02-12T07:58:43;103796.75;;;11.33;57.25
48848;BME280;36611;51.638;5.784;2023-02-12T08:01:16;103801.25;;;11.33;57.31
48848;BME280;36611;51.638;5.784;2023-02-12T08:03:45;103800.41;;;11.31;57.40
48848;BME280;36611;51.638;5.784;2023-02-12T08:06:17;103799.47;;;11.32;57.35
48848;BME280;36611;51.638;5.784;2023-02-12T08:08:45;103796.69;;;11.35;57.30
48848;BME280;36611;51.638;5.784;2023-02-12T08:11:13;103809.16;;;11.39;57.32
48848;BME280;36611;51.638;5.784;2023-02-12T08:13:41;103813.59;;;11.40;57.44
48848;BME280;36611;51.638;5.784;2023-02-12T08:16:14;103809.97;;;11.41;57.26
48848;BME280;36611;51.638;5.784;2023-02-12T08:18:41;103818.00;;;11.42;57.19
48848;BME280;36611;51.638;5.784;2023-02-12T08:21:12;103826.03;;;11.44;57.35
48848;BME280;36611;51.638;5.784;2023-02-12T08:23:40;103816.16;;;11.44;57.31
48848;BME280;36611;51.638;5.784;2023-02-12T08:26:17;103817.84;;;11.49;57.44
48848;BME280;36611;51.638;5.784;2023-02-12T08:28:50;103817.75;;;11.52;57.37
48848;BME280;36611;51.638;5.784;2023-02-12T08:31:23;103824.91;;;11.53;57.37
48848;BME280;36611;51.638;5.784;2023-02-12T08:33:51;103828.53;;;11.52;57.60
48848;BME280;36611;51.638;5.784;2023-02-12T08:36:20;103829.44;;;11.51;57.66
48848;BME280;36611;51.638;5.784;2023-02-12T08:38:48;103831.22;;;11.52;57.79
48848;BME280;36611;51.638;5.784;2023-02-12T08:41:17;103831.19;;;11.53;57.81
48848;BME280;36611;51.638;5.784;2023-02-12T08:43:47;103831.13;;;11.55;57.89
48848;BME280;36611;51.638;5.784;2023-02-12T08:46:20;103834.66;;;11.57;57.74
48848;BME280;36611;51.638;5.784;2023-02-12T08:48:47;103831.94;;;11.58;57.78
48848;BME280;36611;51.638;5.784;2023-02-12T08:51:19;103826.41;;;11.63;58.19
48848;BME280;36611;51.638;5.784;2023-02-12T08:53:47;103834.41;;;11.66;58.06
48848;BME280;36611;51.638;5.784;2023-02-12T08:56:16;103834.28;;;11.70;57.82
48848;BME280;36611;51.638;5.784;2023-02-12T08:58:43;103844.06;;;11.73;58.09
48848;BME280;36611;51.638;5.784;2023-02-12T09:01:13;103839.53;;;11.75;57.80
48848;BME280;36611;51.638;5.784;2023-02-12T09:03:41;103840.38;;;11.78;57.99
48848;BME280;36611;51.638;5.784;2023-02-12T09:06:08;103834.88;;;11.82;57.89
48848;BME280;36611;51.638;5.784;2023-02-12T09:08:36;103845.56;;;11.85;57.93
48848;BME280;36611;51.638;5.784;2023-02-12T09:11:05;103838.28;;;11.88;58.09
48848;BME280;36611;51.638;5.784;2023-02-12T09:13:32;103848.06;;;11.92;57.78
48848;BME280;36611;51.638;5.784;2023-02-12T09:16:00;103848.88;;;11.96;57.85
48848;BME280;36611;51.638;5.784;2023-02-12T09:18:28;103850.59;;;11.98;57.71
48848;BME280;36611;51.638;5.784;2023-02-12T09:21:00;103852.31;;;12.01;57.69
48848;BME280;36611;51.638;5.784;2023-02-12T09:23:31;103855.78;;;12.04;57.47
48848;BME280;36611;51.638;5.784;2023-02-12T09:25:58;103860.31;;;12.04;57.58
48848;BME280;36611;51.638;5.784;2023-02-12T09:28:25;103851.34;;;12.03;57.42
48848;BME280;36611;51.638;5.784;2023-02-12T09:30:52;103856.72;;;12.03;57.46
48848;BME280;36611;51.638;5.784;2023-02-12T09:33:22;103864.75;;;12.05;57.44
48848;BME280;36611;51.638;5.784;2023-02-12T09:35:49;103861.09;;;12.07;57.19
48848;BME280;36611;51.638;5.784;2023-02-12T09:38:16;103856.53;;;12.09;57.46
48848;BME280;36611;51.638;5.784;2023-02-12T09:43:29;103857.44;;;12.10;57.12
48848;BME280;36611;51.638;5.784;2023-02-12T09:46:40;103854.72;;;12.10;57.13
48848;BME280;36611;51.638;5.784;2023-02-12T09:49:09;103856.47;;;12.13;57.26
48848;BME280;36611;51.638;5.784;2023-02-12T09:51:41;103865.38;;;12.15;57.29
48848;BME280;36611;51.638;5.784;2023-02-12T09:54:14;103856.28;;;12.19;57.12
48848;BME280;36611;51.638;5.784;2023-02-12T09:56:45;103856.13;;;12.23;56.95
48848;BME280;36611;51.638;5.784;2023-02-12T09:59:55;103850.59;;;12.28;56.86
48848;BME280;36611;51.638;5.784;2023-02-12T10:02:15;103855.81;;;12.34;56.73
48848;BME280;36611;51.638;5.784;2023-02-12T10:04:44;103857.53;;;12.36;56.88
48848;BME280;36611;51.638;5.784;2023-02-12T10:12:38;103855.31;;;12.49;56.17
48848;BME280;36611;51.638;5.784;2023-02-12T10:15:18;103859.75;;;12.52;56.18
48848;BME280;36611;51.638;5.784;2023-02-12T10:20:55;103860.63;;;12.52;56.18
48848;BME280;36611;51.638;5.784;2023-02-12T10:23:36;103866.84;;;12.54;56.21
48848;BME280;36611;51.638;5.784;2023-02-12T10:26:18;103852.44;;;12.55;56.24
48848;BME280;36611;51.638;5.784;2023-02-12T10:28:48;103852.34;;;12.58;56.23
48848;BME280;36611;51.638;5.784;2023-02-12T10:31:31;103844.16;;;12.61;56.38
48848;BME280;36611;51.638;5.784;2023-02-12T10:34:12;103850.44;;;12.62;56.29
48848;BME280;36611;51.638;5.784;2023-02-12T10:36:50;103847.63;;;12.66;56.26
48848;BME280;36611;51.638;5.784;2023-02-12T10:39:47;103846.59;;;12.70;56.09
48848;BME280;36611;51.638;5.784;2023-02-12T10:42:20;103852.72;;;12.76;56.44
48848;BME280;36611;51.638;5.784;2023-02-12T10:44:51;103836.53;;;12.76;56.11
48848;BME280;36611;51.638;5.784;2023-02-12T10:47:20;103833.72;;;12.79;55.95
48848;BME280;36611;51.638;5.784;2023-02-12T10:49:59;103834.50;;;12.82;56.44
48848;BME280;36611;51.638;5.784;2023-02-12T10:52:35;103838.00;;;12.86;56.09
48848;BME280;36611;51.638;5.784;2023-02-12T10:55:25;103837.06;;;12.87;55.76
48848;BME280;36611;51.638;5.784;2023-02-12T10:57:54;103836.91;;;12.91;55.95
48848;BME280;36611;51.638;5.784;2023-02-12T11:05:41;103841.06;;;13.01;55.57
48848;BME280;36611;51.638;5.784;2023-02-12T11:08:27;103836.44;;;13.05;55.52
48848;BME280;36611;51.638;5.784;2023-02-12T11:10:55;103843.41;;;13.12;55.45
48848;BME280;36611;51.638;5.784;2023-02-12T11:13:28;103845.06;;;13.16;55.19
48848;BME280;36611;51.638;5.784;2023-02-12T11:15:55;103844.88;;;13.22;55.06
48848;BME280;36611;51.638;5.784;2023-02-12T11:18:28;103842.94;;;13.26;54.91
48848;BME280;36611;51.638;5.784;2023-02-12T11:21:08;103845.50;;;13.30;54.68
48848;BME280;36611;51.638;5.784;2023-02-12T11:23:38;103837.22;;;13.35;54.36
48848;BME280;36611;51.638;5.784;2023-02-12T11:28:59;103837.97;;;13.40;54.37
48848;BME280;36611;51.638;5.784;2023-02-12T11:31:28;103839.75;;;13.41;53.87
48848;BME280;36611;51.638;5.784;2023-02-12T11:34:13;103837.03;;;13.41;53.81
48848;BME280;36611;51.638;5.784;2023-02-12T11:36:43;103835.16;;;13.43;53.85
48848;BME280;36611;51.638;5.784;2023-02-12T11:41:43;103824.25;;;13.46;53.64
48848;BME280;36611;51.638;5.784;2023-02-12T11:44:12;103828.72;;;13.47;53.75
48848;BME280;36611;51.638;5.784;2023-02-12T11:46:50;103826.78;;;13.51;53.38
48848;BME280;36611;51.638;5.784;2023-02-12T11:49:26;103821.41;;;13.51;53.49
48848;BME280;36611;51.638;5.784;2023-02-12T11:51:55;103814.13;;;13.53;53.52
48848;BME280;36611;51.638;5.784;2023-02-12T11:54:28;103823.88;;;13.57;52.98
48848;BME280;36611;51.638;5.784;2023-02-12T11:56:56;103813.78;;;13.62;53.43
48848;BME280;36611;51.638;5.784;2023-02-12T11:59:33;103808.28;;;13.65;53.12
48848;BME280;36611;51.638;5.784;2023-02-12T12:02:24;103808.22;;;13.66;53.06
48848;BME280;36611;51.638;5.784;2023-02-12T12:05:05;103807.16;;;13.71;52.93
48848;BME280;36611;51.638;5.784;2023-02-12T12:07:35;103816.97;;;13.73;53.21
48848;BME280;36611;51.638;5.784;2023-02-12T12:10:14;103809.63;;;13.77;52.80
48848;BME280;36611;51.638;5.784;2023-02-12T12:12:50;103803.34;;;13.76;52.43
48848;BME280;36611;51.638;5.784;2023-02-12T12:15:21;103798.84;;;13.77;52.55
48848;BME280;36611;51.638;5.784;2023-02-12T12:21:35;103807.59;;;13.83;52.21
48848;BME280;36611;51.638;5.784;2023-02-12T12:24:16;103795.84;;;13.84;52.24
48848;BME280;36611;51.638;5.784;2023-02-12T12:26:49;103792.25;;;13.84;52.22
48848;BME280;36611;51.638;5.784;2023-02-12T12:32:03;103787.56;;;13.89;52.00
48848;BME280;36611;51.638;5.784;2023-02-12T12:34:30;103782.97;;;13.91;51.83
48848;BME280;36611;51.638;5.784;2023-02-12T12:43:05;103786.78;;;13.85;51.44
48848;BME280;36611;51.638;5.784;2023-02-12T12:46:05;103775.22;;;13.82;51.58
48848;BME280;36611;51.638;5.784;2023-02-12T12:48:47;103770.59;;;13.85;51.92
48848;BME280;36611;51.638;5.784;2023-02-12T12:56:56;103759.78;;;13.85;51.67
48848;BME280;36611;51.638;5.784;2023-02-12T13:08:16;103750.56;;;13.91;51.46
48848;BME280;36611;51.638;5.784;2023-02-12T13:10:52;103751.50;;;13.90;51.44
48848;BME280;36611;51.638;5.784;2023-02-12T13:13:23;103750.56;;;13.91;51.53
48848;BME280;36611;51.638;5.784;2023-02-12T13:18:31;103744.97;;;13.95;51.25
48848;BME280;36611;51.638;5.784;2023-02-12T13:23:56;103739.31;;;14.02;51.35
48848;BME280;36611;51.638;5.784;2023-02-12T13:26:49;103738.44;;;14.01;51.22
48848;BME280;36611;51.638;5.784;2023-02-12T13:29:42;103737.56;;;14.00;51.39
48848;BME280;36611;51.638;5.784;2023-02-12T13:34:40;103741.22;;;13.99;51.26
48848;BME280;36611;51.638;5.784;2023-02-12T13:37:14;103739.38;;;14.00;51.07
48848;BME280;36611;51.638;5.784;2023-02-12T13:39:45;103733.84;;;14.03;51.12
48848;BME280;36611;51.638;5.784;2023-02-12T13:51:46;103734.53;;;13.86;50.81
48848;BME280;36611;51.638;5.784;2023-02-12T13:56:59;103729.31;;;13.82;51.02
48848;BME280;36611;51.638;5.784;2023-02-12T14:02:39;103725.72;;;13.81;51.07
48848;BME280;36611;51.638;5.784;2023-02-12T14:05:24;103728.31;;;13.84;51.40
48848;BME280;36611;51.638;5.784;2023-02-12T14:07:57;103726.47;;;13.85;51.42
48848;BME280;36611;51.638;5.784;2023-02-12T14:10:36;103726.53;;;13.83;51.60
48848;BME280;36611;51.638;5.784;2023-02-12T14:13:21;103713.97;;;13.82;51.10
48848;BME280;36611;51.638;5.784;2023-02-12T14:15:49;103722.84;;;13.86;51.42
48848;BME280;36611;51.638;5.784;2023-02-12T14:18:33;103722.03;;;13.84;51.20
48848;BME280;36611;51.638;5.784;2023-02-12T14:23:43;103712.34;;;13.78;51.29
48848;BME280;36611;51.638;5.784;2023-02-12T14:26:16;103720.50;;;13.77;51.37
48848;BME280;36611;51.638;5.784;2023-02-12T14:33:48;103715.97;;;13.77;51.44
48848;BME280;36611;51.638;5.784;2023-02-12T14:36:38;103714.28;;;13.75;51.58
48848;BME280;36611;51.638;5.784;2023-02-12T14:41:47;103716.16;;;13.73;51.75
48848;BME280;36611;51.638;5.784;2023-02-12T14:46:53;103715.28;;;13.72;51.61
48848;BME280;36611;51.638;5.784;2023-02-12T14:49:26;103714.38;;;13.72;51.46
48848;BME280;36611;51.638;5.784;2023-02-12T14:52:11;103708.09;;;13.71;51.66
48848;BME280;36611;51.638;5.784;2023-02-12T14:57:37;103709.94;;;13.71;51.61
48848;BME280;36611;51.638;5.784;2023-02-12T15:02:49;103704.72;;;13.66;51.79
48848;BME280;36611;51.638;5.784;2023-02-12T15:05:24;103701.13;;;13.65;51.62
48848;BME280;36611;51.638;5.784;2023-02-12T15:07:56;103707.41;;;13.66;51.96
48848;BME280;36611;51.638;5.784;2023-02-12T15:10:36;103697.66;;;13.62;52.06
48848;BME280;36611;51.638;5.784;2023-02-12T15:13:25;103693.25;;;13.59;52.03
48848;BME280;36611;51.638;5.784;2023-02-12T15:16:00;103694.16;;;13.60;52.02
48848;BME280;36611;51.638;5.784;2023-02-12T15:21:25;103689.69;;;13.59;51.98
48848;BME280;36611;51.638;5.784;2023-02-12T15:26:27;103693.38;;;13.56;52.01